Loudon, New Hampshire
Current Conditions -  °F | °C
As of 11:10 AM on Thursday 23 Oct 2014 (Local Time) from KCON Reporting Station
Light Rain Light Rain  
Wind Chill: 45°   Ceiling: 1400
Heat Index: 49°   Visibility: 3mi
Dew Point: 49°   Wind: 10mph
Humidity: 100%   Direction: 20°NNE
Pressure: 29.77"   Gusts: NA
Location:  43.18°N, 71.56°W
Report Text: KCON 231510Z AUTO 02009KT 3SM -RA BR BKN014 OVC020 09/09 A2977 RMK AO2 P0004 T00940094
Loading
Personal Weather Stations






























Interactive Weather Map
Tropical Storm Tracking
New forecast layout! Learn more

10-Day Weather Forecast

Advertisements
Track Severe Weather on mobile